Aeroporto :
LOGIN :

Iscrizione | Disclaimer

   EN    FR    IT 

 










Sommario :    VFR   VFR Marginale   IFR   IFR Intensivo   IFR Molto Intensivo
Visibilità : 
Base nubi : 
>= 8 km
>= 3000ft
5 / 8 km
1000 / 3000 ft
1500m / 5 km
500 / 1000 ft
800 / 1500m
200 / 500 ft
< 800m
< 200 ft
Simboli :   Temporali  Nebbia  Neve Forte  Precipitazioni Forti  Vento > 20 kt
SIGMETs :   Varie  Temporali  Ghiacco  Turbolenza  Onda orograficha  Ceneri Vulcaniche







- Altitudine del aeroporto : 1906 ft
- Codice IATA : INN


LOWI - Innsbruck

ULTIMO METAR :
  • 230220Z AUTO VRB01KT 9999 FEW014 BKN022 16/14 Q1026

METARs OBSOLETI :
  • 230150Z AUTO VRB02KT 9999 FEW013 SCT018 BKN022 16/14 Q1026
  • 230120Z AUTO VRB02KT 9999 FEW015 BKN020 16/14 Q1026
  • 230050Z AUTO VRB02KT 9999 FEW014 BKN018 17/14 Q1026
  • 230020Z AUTO 24003KT 210V270 9999 FEW016 OVC020 17/14 Q1026
  • 222350Z AUTO 29002KT 9999 FEW018 BKN019 17/14 Q1026

TAF TAF LOWI
Valido dal 23 a 00 ore il 24 a 00 ore UTC


222315Z 2300/2324 08003KT 9999 BKN020 TX24/2314Z TN14/2304Z
PROB30
TEMPO 2300/2306 BKN008
BECMG 2307/2309 08008KT FEW030
TEMPO 2313/2318 FEW070CB SCT100
PROB40
TEMPO 2313/2318 VRB15G25KT -TSRA
BECMG 2318/2320 VRB02KT
Nessun NOTAM noto per questo aeroporto.



MetMap, La meteo Aeronautica in un colpo d'occhio ! - Copyright ORBIFLY Dicembre 2007 - Disclaimer

ORBIFLY MET'MAP TEAM :

Programmazione e sviluppo : Alexandra Zaïnal
Concezione e sviluppo : Baudouin d'Aumeries
Co-Programmazione e sviluppo : Marc-Olivier Méhu
Supporto tecnico e logistico : Manuel Goepfert
Aiuto per la traduzione : Arnaldo La Scala

Contatto : metmap@orbifly.com




FONTI E CREDITI :

   NOAA